sensor_id;sensor_type;location;lat;lon;timestamp;P1;durP1;ratioP1;P2;durP2;ratioP2
35969;SDS011;22448;51.298;6.430;2024-03-08T00:02:17;42.28;;;22.98;;
35969;SDS011;22448;51.298;6.430;2024-03-08T00:04:44;43.42;;;23.83;;
35969;SDS011;22448;51.298;6.430;2024-03-08T00:07:11;38.55;;;22.50;;
35969;SDS011;22448;51.298;6.430;2024-03-08T00:09:39;45.80;;;25.77;;
35969;SDS011;22448;51.298;6.430;2024-03-08T00:12:07;48.03;;;26.67;;
35969;SDS011;22448;51.298;6.430;2024-03-08T00:14:35;53.47;;;29.65;;
35969;SDS011;22448;51.298;6.430;2024-03-08T00:17:03;52.78;;;26.50;;
35969;SDS011;22448;51.298;6.430;2024-03-08T00:19:31;46.72;;;26.90;;
35969;SDS011;22448;51.298;6.430;2024-03-08T00:21:58;43.95;;;26.52;;
35969;SDS011;22448;51.298;6.430;2024-03-08T00:24:25;46.85;;;27.48;;
35969;SDS011;22448;51.298;6.430;2024-03-08T00:26:52;43.15;;;25.77;;
35969;SDS011;22448;51.298;6.430;2024-03-08T00:29:20;46.72;;;25.80;;
35969;SDS011;22448;51.298;6.430;2024-03-08T00:31:48;48.08;;;25.45;;
35969;SDS011;22448;51.298;6.430;2024-03-08T00:34:15;47.63;;;25.20;;
35969;SDS011;22448;51.298;6.430;2024-03-08T00:36:42;40.95;;;24.67;;
35969;SDS011;22448;51.298;6.430;2024-03-08T00:39:10;46.20;;;24.50;;
35969;SDS011;22448;51.298;6.430;2024-03-08T00:41:38;46.50;;;25.02;;
35969;SDS011;22448;51.298;6.430;2024-03-08T00:44:05;44.22;;;25.63;;
35969;SDS011;22448;51.298;6.430;2024-03-08T00:46:32;45.65;;;24.60;;
35969;SDS011;22448;51.298;6.430;2024-03-08T00:49:00;43.83;;;25.85;;
35969;SDS011;22448;51.298;6.430;2024-03-08T00:51:28;48.13;;;25.25;;
35969;SDS011;22448;51.298;6.430;2024-03-08T00:53:55;39.97;;;25.15;;
35969;SDS011;22448;51.298;6.430;2024-03-08T00:56:22;41.45;;;24.38;;
35969;SDS011;22448;51.298;6.430;2024-03-08T00:58:50;41.67;;;25.77;;
35969;SDS011;22448;51.298;6.430;2024-03-08T01:01:18;41.05;;;24.25;;
35969;SDS011;22448;51.298;6.430;2024-03-08T01:03:45;45.10;;;26.20;;
35969;SDS011;22448;51.298;6.430;2024-03-08T01:06:13;45.25;;;25.08;;
35969;SDS011;22448;51.298;6.430;2024-03-08T01:08:40;49.60;;;25.27;;
35969;SDS011;22448;51.298;6.430;2024-03-08T01:11:08;44.35;;;26.20;;
35969;SDS011;22448;51.298;6.430;2024-03-08T01:13:36;41.00;;;25.15;;
35969;SDS011;22448;51.298;6.430;2024-03-08T01:16:03;45.25;;;25.25;;
35969;SDS011;22448;51.298;6.430;2024-03-08T01:18:30;43.13;;;24.85;;
35969;SDS011;22448;51.298;6.430;2024-03-08T01:20:57;44.22;;;26.00;;
35969;SDS011;22448;51.298;6.430;2024-03-08T01:23:25;44.03;;;26.48;;
35969;SDS011;22448;51.298;6.430;2024-03-08T01:25:52;43.67;;;25.10;;
35969;SDS011;22448;51.298;6.430;2024-03-08T01:28:24;42.60;;;24.55;;
35969;SDS011;22448;51.298;6.430;2024-03-08T01:30:52;43.45;;;26.40;;
35969;SDS011;22448;51.298;6.430;2024-03-08T01:33:22;44.90;;;25.70;;
35969;SDS011;22448;51.298;6.430;2024-03-08T01:35:52;41.28;;;24.40;;
35969;SDS011;22448;51.298;6.430;2024-03-08T01:38:20;45.33;;;26.08;;
35969;SDS011;22448;51.298;6.430;2024-03-08T01:40:48;49.08;;;25.80;;
35969;SDS011;22448;51.298;6.430;2024-03-08T01:43:17;45.20;;;25.70;;
35969;SDS011;22448;51.298;6.430;2024-03-08T01:45:45;49.20;;;26.63;;
35969;SDS011;22448;51.298;6.430;2024-03-08T01:48:12;46.28;;;27.02;;
35969;SDS011;22448;51.298;6.430;2024-03-08T01:50:41;55.05;;;26.42;;
35969;SDS011;22448;51.298;6.430;2024-03-08T01:53:09;47.60;;;25.35;;
35969;SDS011;22448;51.298;6.430;2024-03-08T01:55:38;45.83;;;27.33;;
35969;SDS011;22448;51.298;6.430;2024-03-08T01:58:06;49.53;;;26.70;;
35969;SDS011;22448;51.298;6.430;2024-03-08T02:00:35;44.88;;;27.33;;
35969;SDS011;22448;51.298;6.430;2024-03-08T02:03:06;49.63;;;29.00;;
35969;SDS011;22448;51.298;6.430;2024-03-08T02:05:34;49.20;;;27.27;;
35969;SDS011;22448;51.298;6.430;2024-03-08T02:08:02;48.60;;;27.65;;
35969;SDS011;22448;51.298;6.430;2024-03-08T02:10:30;45.33;;;27.15;;
35969;SDS011;22448;51.298;6.430;2024-03-08T02:12:57;48.50;;;27.85;;
35969;SDS011;22448;51.298;6.430;2024-03-08T02:15:24;49.83;;;28.65;;
35969;SDS011;22448;51.298;6.430;2024-03-08T02:17:52;48.47;;;27.48;;
35969;SDS011;22448;51.298;6.430;2024-03-08T02:20:20;50.05;;;27.92;;
35969;SDS011;22448;51.298;6.430;2024-03-08T02:22:47;48.20;;;28.10;;
35969;SDS011;22448;51.298;6.430;2024-03-08T02:25:16;49.65;;;28.52;;
35969;SDS011;22448;51.298;6.430;2024-03-08T02:27:43;50.10;;;28.75;;
35969;SDS011;22448;51.298;6.430;2024-03-08T02:30:10;49.97;;;27.70;;
35969;SDS011;22448;51.298;6.430;2024-03-08T02:32:39;50.10;;;28.88;;
35969;SDS011;22448;51.298;6.430;2024-03-08T02:35:06;49.17;;;28.30;;
35969;SDS011;22448;51.298;6.430;2024-03-08T02:37:34;51.33;;;28.88;;
35969;SDS011;22448;51.298;6.430;2024-03-08T02:40:01;49.50;;;28.15;;
35969;SDS011;22448;51.298;6.430;2024-03-08T02:42:28;58.67;;;30.88;;
35969;SDS011;22448;51.298;6.430;2024-03-08T02:44:55;48.30;;;28.13;;
35969;SDS011;22448;51.298;6.430;2024-03-08T02:47:22;48.00;;;28.33;;
35969;SDS011;22448;51.298;6.430;2024-03-08T02:49:53;52.78;;;28.55;;
35969;SDS011;22448;51.298;6.430;2024-03-08T02:52:20;47.28;;;27.80;;
35969;SDS011;22448;51.298;6.430;2024-03-08T02:54:48;50.45;;;28.40;;
35969;SDS011;22448;51.298;6.430;2024-03-08T02:57:15;48.95;;;27.42;;
35969;SDS011;22448;51.298;6.430;2024-03-08T02:59:42;49.90;;;28.38;;
35969;SDS011;22448;51.298;6.430;2024-03-08T03:02:09;47.85;;;29.10;;
35969;SDS011;22448;51.298;6.430;2024-03-08T03:04:39;52.40;;;30.27;;
35969;SDS011;22448;51.298;6.430;2024-03-08T03:07:06;47.78;;;27.90;;
35969;SDS011;22448;51.298;6.430;2024-03-08T03:09:33;51.13;;;29.30;;
35969;SDS011;22448;51.298;6.430;2024-03-08T03:12:01;52.28;;;29.25;;
35969;SDS011;22448;51.298;6.430;2024-03-08T03:14:29;49.28;;;31.00;;
35969;SDS011;22448;51.298;6.430;2024-03-08T03:16:56;55.78;;;30.13;;
35969;SDS011;22448;51.298;6.430;2024-03-08T03:19:24;48.35;;;29.08;;
35969;SDS011;22448;51.298;6.430;2024-03-08T03:21:51;56.15;;;30.35;;
35969;SDS011;22448;51.298;6.430;2024-03-08T03:24:19;54.92;;;30.25;;
35969;SDS011;22448;51.298;6.430;2024-03-08T03:26:47;55.03;;;29.58;;
35969;SDS011;22448;51.298;6.430;2024-03-08T03:29:16;50.35;;;30.27;;
35969;SDS011;22448;51.298;6.430;2024-03-08T03:31:43;53.10;;;29.42;;
35969;SDS011;22448;51.298;6.430;2024-03-08T03:34:13;49.97;;;28.52;;
35969;SDS011;22448;51.298;6.430;2024-03-08T03:36:40;54.45;;;31.27;;
35969;SDS011;22448;51.298;6.430;2024-03-08T03:39:09;47.53;;;29.58;;
35969;SDS011;22448;51.298;6.430;2024-03-08T03:41:43;49.08;;;28.75;;
35969;SDS011;22448;51.298;6.430;2024-03-08T03:44:12;58.08;;;29.67;;
35969;SDS011;22448;51.298;6.430;2024-03-08T03:46:42;53.35;;;30.33;;
35969;SDS011;22448;51.298;6.430;2024-03-08T03:49:13;54.88;;;30.05;;
35969;SDS011;22448;51.298;6.430;2024-03-08T03:51:40;61.35;;;29.58;;
35969;SDS011;22448;51.298;6.430;2024-03-08T03:54:07;57.70;;;31.50;;
35969;SDS011;22448;51.298;6.430;2024-03-08T03:56:35;55.10;;;30.88;;
35969;SDS011;22448;51.298;6.430;2024-03-08T03:59:02;51.53;;;28.55;;
35969;SDS011;22448;51.298;6.430;2024-03-08T04:01:29;51.92;;;30.50;;
35969;SDS011;22448;51.298;6.430;2024-03-08T04:03:56;60.35;;;31.35;;
35969;SDS011;22448;51.298;6.430;2024-03-08T04:06:24;53.42;;;29.40;;
35969;SDS011;22448;51.298;6.430;2024-03-08T04:08:51;51.83;;;29.83;;
35969;SDS011;22448;51.298;6.430;2024-03-08T04:11:18;58.05;;;31.23;;
35969;SDS011;22448;51.298;6.430;2024-03-08T04:13:45;63.38;;;31.85;;
35969;SDS011;22448;51.298;6.430;2024-03-08T04:16:12;54.58;;;31.00;;
35969;SDS011;22448;51.298;6.430;2024-03-08T04:18:39;57.65;;;30.60;;
35969;SDS011;22448;51.298;6.430;2024-03-08T04:21:07;61.38;;;32.17;;
35969;SDS011;22448;51.298;6.430;2024-03-08T04:23:34;58.70;;;31.63;;
35969;SDS011;22448;51.298;6.430;2024-03-08T04:26:02;58.05;;;31.02;;
35969;SDS011;22448;51.298;6.430;2024-03-08T04:28:31;59.83;;;31.52;;
35969;SDS011;22448;51.298;6.430;2024-03-08T04:30:58;59.83;;;32.72;;
35969;SDS011;22448;51.298;6.430;2024-03-08T04:33:27;54.60;;;30.42;;
35969;SDS011;22448;51.298;6.430;2024-03-08T04:35:54;55.13;;;31.58;;
35969;SDS011;22448;51.298;6.430;2024-03-08T04:38:22;56.38;;;33.13;;
35969;SDS011;22448;51.298;6.430;2024-03-08T04:40:49;62.75;;;33.42;;
35969;SDS011;22448;51.298;6.430;2024-03-08T04:43:16;66.38;;;32.55;;
35969;SDS011;22448;51.298;6.430;2024-03-08T04:45:45;63.08;;;34.35;;
35969;SDS011;22448;51.298;6.430;2024-03-08T04:48:12;55.13;;;31.58;;
35969;SDS011;22448;51.298;6.430;2024-03-08T04:50:39;62.10;;;34.22;;
35969;SDS011;22448;51.298;6.430;2024-03-08T04:53:07;58.30;;;32.67;;
35969;SDS011;22448;51.298;6.430;2024-03-08T04:55:34;64.85;;;35.55;;
35969;SDS011;22448;51.298;6.430;2024-03-08T04:58:01;68.93;;;34.45;;
35969;SDS011;22448;51.298;6.430;2024-03-08T05:00:30;68.35;;;34.85;;
35969;SDS011;22448;51.298;6.430;2024-03-08T05:02:58;65.72;;;35.50;;
35969;SDS011;22448;51.298;6.430;2024-03-08T05:05:26;63.30;;;35.63;;
35969;SDS011;22448;51.298;6.430;2024-03-08T05:07:55;66.55;;;35.92;;
35969;SDS011;22448;51.298;6.430;2024-03-08T05:10:22;64.10;;;35.38;;
35969;SDS011;22448;51.298;6.430;2024-03-08T05:12:49;64.75;;;34.97;;
35969;SDS011;22448;51.298;6.430;2024-03-08T05:15:18;75.35;;;36.58;;
35969;SDS011;22448;51.298;6.430;2024-03-08T05:17:47;62.65;;;32.63;;
35969;SDS011;22448;51.298;6.430;2024-03-08T05:20:14;68.53;;;35.63;;
35969;SDS011;22448;51.298;6.430;2024-03-08T05:22:43;67.18;;;35.45;;
35969;SDS011;22448;51.298;6.430;2024-03-08T05:25:11;69.15;;;37.22;;
35969;SDS011;22448;51.298;6.430;2024-03-08T05:27:38;73.68;;;36.65;;
35969;SDS011;22448;51.298;6.430;2024-03-08T05:30:06;71.88;;;36.85;;
35969;SDS011;22448;51.298;6.430;2024-03-08T05:32:33;72.85;;;36.60;;
35969;SDS011;22448;51.298;6.430;2024-03-08T05:35:01;74.20;;;37.33;;
35969;SDS011;22448;51.298;6.430;2024-03-08T05:37:29;71.55;;;36.83;;
35969;SDS011;22448;51.298;6.430;2024-03-08T05:39:58;69.25;;;37.20;;
35969;SDS011;22448;51.298;6.430;2024-03-08T05:42:25;72.40;;;37.20;;
35969;SDS011;22448;51.298;6.430;2024-03-08T05:44:52;66.72;;;35.30;;
35969;SDS011;22448;51.298;6.430;2024-03-08T05:47:19;73.85;;;37.33;;
35969;SDS011;22448;51.298;6.430;2024-03-08T05:49:46;64.80;;;35.40;;
35969;SDS011;22448;51.298;6.430;2024-03-08T05:52:13;65.15;;;35.47;;
35969;SDS011;22448;51.298;6.430;2024-03-08T05:54:41;69.35;;;37.78;;
35969;SDS011;22448;51.298;6.430;2024-03-08T05:57:10;73.43;;;37.17;;
35969;SDS011;22448;51.298;6.430;2024-03-08T05:59:37;77.47;;;37.95;;
35969;SDS011;22448;51.298;6.430;2024-03-08T06:02:04;69.43;;;38.47;;
35969;SDS011;22448;51.298;6.430;2024-03-08T06:04:31;71.20;;;37.45;;
35969;SDS011;22448;51.298;6.430;2024-03-08T06:06:58;70.93;;;36.60;;
35969;SDS011;22448;51.298;6.430;2024-03-08T06:09:26;67.75;;;36.67;;
35969;SDS011;22448;51.298;6.430;2024-03-08T06:11:53;63.28;;;35.90;;
35969;SDS011;22448;51.298;6.430;2024-03-08T06:14:21;67.57;;;36.63;;
35969;SDS011;22448;51.298;6.430;2024-03-08T06:16:48;77.78;;;36.22;;
35969;SDS011;22448;51.298;6.430;2024-03-08T06:19:17;70.38;;;37.13;;
35969;SDS011;22448;51.298;6.430;2024-03-08T06:21:44;71.35;;;36.80;;
35969;SDS011;22448;51.298;6.430;2024-03-08T06:24:12;69.38;;;38.05;;
35969;SDS011;22448;51.298;6.430;2024-03-08T06:26:39;75.13;;;38.75;;
35969;SDS011;22448;51.298;6.430;2024-03-08T06:29:07;68.38;;;36.60;;
35969;SDS011;22448;51.298;6.430;2024-03-08T06:31:34;65.70;;;35.40;;
35969;SDS011;22448;51.298;6.430;2024-03-08T06:34:06;75.25;;;35.92;;
35969;SDS011;22448;51.298;6.430;2024-03-08T06:36:34;66.53;;;35.33;;
35969;SDS011;22448;51.298;6.430;2024-03-08T06:39:01;63.65;;;33.50;;
35969;SDS011;22448;51.298;6.430;2024-03-08T06:41:36;57.05;;;32.90;;
35969;SDS011;22448;51.298;6.430;2024-03-08T06:44:03;62.20;;;34.13;;
35969;SDS011;22448;51.298;6.430;2024-03-08T06:46:30;65.30;;;34.28;;
35969;SDS011;22448;51.298;6.430;2024-03-08T06:48:57;63.17;;;36.03;;
35969;SDS011;22448;51.298;6.430;2024-03-08T06:51:25;72.53;;;35.53;;
35969;SDS011;22448;51.298;6.430;2024-03-08T06:53:52;60.63;;;34.13;;
35969;SDS011;22448;51.298;6.430;2024-03-08T06:56:19;66.22;;;36.35;;
35969;SDS011;22448;51.298;6.430;2024-03-08T06:58:46;65.22;;;33.70;;
35969;SDS011;22448;51.298;6.430;2024-03-08T07:01:14;65.53;;;35.65;;
35969;SDS011;22448;51.298;6.430;2024-03-08T07:03:41;73.93;;;34.92;;
35969;SDS011;22448;51.298;6.430;2024-03-08T07:06:11;66.68;;;36.20;;
35969;SDS011;22448;51.298;6.430;2024-03-08T07:08:39;69.32;;;36.70;;
35969;SDS011;22448;51.298;6.430;2024-03-08T07:11:06;67.93;;;35.78;;
35969;SDS011;22448;51.298;6.430;2024-03-08T07:13:33;67.35;;;36.33;;
35969;SDS011;22448;51.298;6.430;2024-03-08T07:16:00;60.97;;;33.30;;
35969;SDS011;22448;51.298;6.430;2024-03-08T07:18:28;57.90;;;31.20;;
35969;SDS011;22448;51.298;6.430;2024-03-08T07:20:57;50.88;;;30.48;;
35969;SDS011;22448;51.298;6.430;2024-03-08T07:23:24;56.72;;;31.67;;
35969;SDS011;22448;51.298;6.430;2024-03-08T07:26:10;55.88;;;29.95;;
35969;SDS011;22448;51.298;6.430;2024-03-08T07:28:37;56.03;;;29.92;;
35969;SDS011;22448;51.298;6.430;2024-03-08T07:31:04;56.03;;;30.08;;
35969;SDS011;22448;51.298;6.430;2024-03-08T07:33:44;57.60;;;30.20;;
35969;SDS011;22448;51.298;6.430;2024-03-08T07:36:11;59.28;;;30.45;;
35969;SDS011;22448;51.298;6.430;2024-03-08T07:38:38;50.78;;;29.15;;
35969;SDS011;22448;51.298;6.430;2024-03-08T07:41:06;46.42;;;27.50;;
35969;SDS011;22448;51.298;6.430;2024-03-08T07:43:33;50.00;;;28.50;;
35969;SDS011;22448;51.298;6.430;2024-03-08T07:46:00;47.25;;;28.40;;
35969;SDS011;22448;51.298;6.430;2024-03-08T07:48:27;47.72;;;27.50;;
35969;SDS011;22448;51.298;6.430;2024-03-08T07:50:54;49.17;;;27.50;;
35969;SDS011;22448;51.298;6.430;2024-03-08T07:53:22;52.05;;;27.70;;
35969;SDS011;22448;51.298;6.430;2024-03-08T07:55:51;48.72;;;27.98;;
35969;SDS011;22448;51.298;6.430;2024-03-08T07:58:18;45.45;;;26.75;;
35969;SDS011;22448;51.298;6.430;2024-03-08T08:00:45;44.10;;;26.33;;
35969;SDS011;22448;51.298;6.430;2024-03-08T08:03:12;54.58;;;26.27;;
35969;SDS011;22448;51.298;6.430;2024-03-08T08:05:40;46.97;;;26.83;;
35969;SDS011;22448;51.298;6.430;2024-03-08T08:08:08;46.65;;;26.23;;
35969;SDS011;22448;51.298;6.430;2024-03-08T08:10:37;47.00;;;26.30;;
35969;SDS011;22448;51.298;6.430;2024-03-08T08:13:04;52.10;;;26.05;;
35969;SDS011;22448;51.298;6.430;2024-03-08T08:15:32;49.92;;;27.05;;
35969;SDS011;22448;51.298;6.430;2024-03-08T08:18:02;49.63;;;26.05;;
35969;SDS011;22448;51.298;6.430;2024-03-08T08:20:32;46.17;;;27.20;;
35969;SDS011;22448;51.298;6.430;2024-03-08T08:22:59;48.42;;;27.38;;
35969;SDS011;22448;51.298;6.430;2024-03-08T08:25:26;48.22;;;25.63;;
35969;SDS011;22448;51.298;6.430;2024-03-08T08:27:53;45.45;;;25.45;;
35969;SDS011;22448;51.298;6.430;2024-03-08T08:30:20;47.95;;;25.20;;
35969;SDS011;22448;51.298;6.430;2024-03-08T08:32:48;45.58;;;24.85;;
35969;SDS011;22448;51.298;6.430;2024-03-08T08:35:16;48.88;;;25.85;;
35969;SDS011;22448;51.298;6.430;2024-03-08T08:37:45;53.10;;;26.30;;
35969;SDS011;22448;51.298;6.430;2024-03-08T08:40:12;46.22;;;24.27;;
35969;SDS011;22448;51.298;6.430;2024-03-08T08:42:44;40.70;;;23.70;;
35969;SDS011;22448;51.298;6.430;2024-03-08T08:45:15;55.45;;;25.73;;
35969;SDS011;22448;51.298;6.430;2024-03-08T08:47:48;40.80;;;23.02;;
35969;SDS011;22448;51.298;6.430;2024-03-08T08:50:15;44.88;;;24.98;;
35969;SDS011;22448;51.298;6.430;2024-03-08T08:52:49;38.40;;;23.00;;
35969;SDS011;22448;51.298;6.430;2024-03-08T08:55:16;41.55;;;24.42;;
35969;SDS011;22448;51.298;6.430;2024-03-08T08:57:47;43.88;;;23.85;;
35969;SDS011;22448;51.298;6.430;2024-03-08T09:00:15;38.72;;;23.60;;
35969;SDS011;22448;51.298;6.430;2024-03-08T09:02:43;41.42;;;25.08;;
35969;SDS011;22448;51.298;6.430;2024-03-08T09:05:10;43.08;;;22.73;;
35969;SDS011;22448;51.298;6.430;2024-03-08T09:07:43;38.85;;;21.20;;
35969;SDS011;22448;51.298;6.430;2024-03-08T09:10:13;41.33;;;20.88;;
35969;SDS011;22448;51.298;6.430;2024-03-08T09:12:44;39.13;;;22.45;;
35969;SDS011;22448;51.298;6.430;2024-03-08T09:15:11;39.63;;;22.42;;
35969;SDS011;22448;51.298;6.430;2024-03-08T09:17:40;36.78;;;20.58;;
35969;SDS011;22448;51.298;6.430;2024-03-08T09:20:08;39.15;;;22.98;;
35969;SDS011;22448;51.298;6.430;2024-03-08T09:22:36;38.72;;;22.27;;
35969;SDS011;22448;51.298;6.430;2024-03-08T09:25:04;35.75;;;20.40;;
35969;SDS011;22448;51.298;6.430;2024-03-08T09:27:32;35.17;;;18.83;;
35969;SDS011;22448;51.298;6.430;2024-03-08T09:30:04;31.77;;;19.13;;
35969;SDS011;22448;51.298;6.430;2024-03-08T09:32:34;29.80;;;19.10;;
35969;SDS011;22448;51.298;6.430;2024-03-08T09:35:01;31.80;;;17.88;;
35969;SDS011;22448;51.298;6.430;2024-03-08T09:37:28;28.13;;;17.33;;
35969;SDS011;22448;51.298;6.430;2024-03-08T09:39:55;33.88;;;19.33;;
35969;SDS011;22448;51.298;6.430;2024-03-08T09:42:24;26.75;;;16.63;;
35969;SDS011;22448;51.298;6.430;2024-03-08T09:44:51;32.00;;;18.23;;
35969;SDS011;22448;51.298;6.430;2024-03-08T09:47:19;26.75;;;16.70;;
35969;SDS011;22448;51.298;6.430;2024-03-08T09:49:51;29.27;;;16.95;;
35969;SDS011;22448;51.298;6.430;2024-03-08T09:52:19;33.15;;;18.33;;
35969;SDS011;22448;51.298;6.430;2024-03-08T09:54:47;33.22;;;18.05;;
35969;SDS011;22448;51.298;6.430;2024-03-08T09:57:16;29.08;;;16.73;;
35969;SDS011;22448;51.298;6.430;2024-03-08T09:59:46;25.65;;;15.80;;
35969;SDS011;22448;51.298;6.430;2024-03-08T10:02:15;30.60;;;16.38;;
35969;SDS011;22448;51.298;6.430;2024-03-08T10:04:43;27.83;;;16.85;;
35969;SDS011;22448;51.298;6.430;2024-03-08T10:07:13;29.73;;;16.77;;
35969;SDS011;22448;51.298;6.430;2024-03-08T10:09:40;28.90;;;16.33;;
35969;SDS011;22448;51.298;6.430;2024-03-08T10:12:13;32.97;;;16.02;;
35969;SDS011;22448;51.298;6.430;2024-03-08T10:14:45;28.50;;;16.25;;
35969;SDS011;22448;51.298;6.430;2024-03-08T10:17:13;29.50;;;17.70;;
35969;SDS011;22448;51.298;6.430;2024-03-08T10:19:48;31.25;;;15.75;;
35969;SDS011;22448;51.298;6.430;2024-03-08T10:22:17;34.38;;;16.33;;
35969;SDS011;22448;51.298;6.430;2024-03-08T10:24:46;27.05;;;17.10;;
35969;SDS011;22448;51.298;6.430;2024-03-08T10:27:13;25.77;;;16.10;;
35969;SDS011;22448;51.298;6.430;2024-03-08T10:29:46;27.08;;;16.73;;
35969;SDS011;22448;51.298;6.430;2024-03-08T10:32:18;27.92;;;16.48;;
35969;SDS011;22448;51.298;6.430;2024-03-08T10:34:45;29.35;;;17.05;;
35969;SDS011;22448;51.298;6.430;2024-03-08T10:37:14;27.25;;;16.35;;
35969;SDS011;22448;51.298;6.430;2024-03-08T10:39:59;25.52;;;16.38;;
35969;SDS011;22448;51.298;6.430;2024-03-08T10:43:03;26.85;;;15.27;;
35969;SDS011;22448;51.298;6.430;2024-03-08T10:45:37;26.45;;;16.17;;
35969;SDS011;22448;51.298;6.430;2024-03-08T10:51:03;27.48;;;15.60;;
35969;SDS011;22448;51.298;6.430;2024-03-08T10:53:31;23.98;;;15.15;;
35969;SDS011;22448;51.298;6.430;2024-03-08T10:56:00;27.13;;;15.20;;
35969;SDS011;22448;51.298;6.430;2024-03-08T10:58:28;24.33;;;14.05;;
35969;SDS011;22448;51.298;6.430;2024-03-08T11:00:56;22.90;;;13.70;;
35969;SDS011;22448;51.298;6.430;2024-03-08T11:06:15;24.65;;;14.23;;
35969;SDS011;22448;51.298;6.430;2024-03-08T11:08:45;26.60;;;16.42;;
35969;SDS011;22448;51.298;6.430;2024-03-08T11:11:25;30.75;;;14.80;;
35969;SDS011;22448;51.298;6.430;2024-03-08T11:14:01;28.25;;;16.08;;
35969;SDS011;22448;51.298;6.430;2024-03-08T11:21:32;30.52;;;14.75;;
35969;SDS011;22448;51.298;6.430;2024-03-08T11:24:00;25.98;;;15.05;;
35969;SDS011;22448;51.298;6.430;2024-03-08T11:26:28;23.35;;;14.32;;
35969;SDS011;22448;51.298;6.430;2024-03-08T11:34:42;20.27;;;13.82;;
35969;SDS011;22448;51.298;6.430;2024-03-08T11:37:11;20.67;;;12.38;;
35969;SDS011;22448;51.298;6.430;2024-03-08T11:39:40;23.05;;;13.43;;
35969;SDS011;22448;51.298;6.430;2024-03-08T11:42:13;20.40;;;13.23;;
35969;SDS011;22448;51.298;6.430;2024-03-08T11:44:44;22.77;;;12.57;;
35969;SDS011;22448;51.298;6.430;2024-03-08T11:47:15;20.52;;;12.57;;
35969;SDS011;22448;51.298;6.430;2024-03-08T11:49:43;21.75;;;12.80;;
35969;SDS011;22448;51.298;6.430;2024-03-08T11:52:11;21.30;;;12.25;;
35969;SDS011;22448;51.298;6.430;2024-03-08T11:54:42;29.25;;;13.48;;
35969;SDS011;22448;51.298;6.430;2024-03-08T11:57:19;24.13;;;11.38;;
35969;SDS011;22448;51.298;6.430;2024-03-08T11:59:49;17.17;;;11.27;;
35969;SDS011;22448;51.298;6.430;2024-03-08T12:02:23;18.90;;;11.52;;
35969;SDS011;22448;51.298;6.430;2024-03-08T12:04:57;23.67;;;11.98;;
35969;SDS011;22448;51.298;6.430;2024-03-08T12:07:30;22.92;;;13.13;;
35969;SDS011;22448;51.298;6.430;2024-03-08T12:12:55;21.13;;;11.95;;
35969;SDS011;22448;51.298;6.430;2024-03-08T12:15:26;20.92;;;13.05;;
35969;SDS011;22448;51.298;6.430;2024-03-08T12:17:54;18.30;;;12.18;;
35969;SDS011;22448;51.298;6.430;2024-03-08T12:20:23;21.35;;;11.63;;
35969;SDS011;22448;51.298;6.430;2024-03-08T12:22:53;24.52;;;14.07;;
35969;SDS011;22448;51.298;6.430;2024-03-08T12:25:26;19.70;;;11.20;;
35969;SDS011;22448;51.298;6.430;2024-03-08T12:28:06;20.20;;;12.15;;
35969;SDS011;22448;51.298;6.430;2024-03-08T12:30:47;17.67;;;11.02;;
35969;SDS011;22448;51.298;6.430;2024-03-08T12:33:19;24.07;;;13.13;;
35969;SDS011;22448;51.298;6.430;2024-03-08T12:35:55;19.88;;;12.43;;
35969;SDS011;22448;51.298;6.430;2024-03-08T12:38:27;20.50;;;11.18;;
35969;SDS011;22448;51.298;6.430;2024-03-08T12:40:55;20.10;;;11.73;;
35969;SDS011;22448;51.298;6.430;2024-03-08T12:43:23;20.77;;;12.60;;
35969;SDS011;22448;51.298;6.430;2024-03-08T12:45:51;19.98;;;11.90;;
35969;SDS011;22448;51.298;6.430;2024-03-08T12:48:19;21.88;;;12.48;;
35969;SDS011;22448;51.298;6.430;2024-03-08T12:50:47;19.90;;;11.95;;
35969;SDS011;22448;51.298;6.430;2024-03-08T12:53:14;20.20;;;12.80;;
35969;SDS011;22448;51.298;6.430;2024-03-08T12:55:42;22.98;;;12.63;;
35969;SDS011;22448;51.298;6.430;2024-03-08T12:58:09;17.00;;;11.77;;
35969;SDS011;22448;51.298;6.430;2024-03-08T13:00:36;22.13;;;12.98;;
35969;SDS011;22448;51.298;6.430;2024-03-08T13:03:03;21.52;;;12.48;;
35969;SDS011;22448;51.298;6.430;2024-03-08T13:05:32;20.10;;;12.93;;
35969;SDS011;22448;51.298;6.430;2024-03-08T13:07:59;19.38;;;11.60;;
35969;SDS011;22448;51.298;6.430;2024-03-08T13:10:26;20.02;;;11.95;;
35969;SDS011;22448;51.298;6.430;2024-03-08T13:12:53;19.52;;;11.32;;
35969;SDS011;22448;51.298;6.430;2024-03-08T13:15:21;19.17;;;12.30;;
35969;SDS011;22448;51.298;6.430;2024-03-08T13:17:48;22.50;;;12.05;;
35969;SDS011;22448;51.298;6.430;2024-03-08T13:20:16;22.80;;;12.40;;
35969;SDS011;22448;51.298;6.430;2024-03-08T13:22:56;18.10;;;12.02;;
35969;SDS011;22448;51.298;6.430;2024-03-08T13:25:26;21.23;;;12.70;;
35969;SDS011;22448;51.298;6.430;2024-03-08T13:27:53;20.92;;;12.93;;
35969;SDS011;22448;51.298;6.430;2024-03-08T13:30:22;23.02;;;11.32;;
35969;SDS011;22448;51.298;6.430;2024-03-08T13:32:53;20.50;;;12.55;;
35969;SDS011;22448;51.298;6.430;2024-03-08T13:35:22;24.48;;;12.13;;
35969;SDS011;22448;51.298;6.430;2024-03-08T13:37:53;18.40;;;11.70;;
35969;SDS011;22448;51.298;6.430;2024-03-08T13:40:20;21.02;;;11.73;;
35969;SDS011;22448;51.298;6.430;2024-03-08T13:42:48;21.58;;;12.75;;
35969;SDS011;22448;51.298;6.430;2024-03-08T13:45:17;22.98;;;12.85;;
35969;SDS011;22448;51.298;6.430;2024-03-08T13:47:49;21.10;;;13.25;;
35969;SDS011;22448;51.298;6.430;2024-03-08T13:50:20;23.65;;;12.23;;
35969;SDS011;22448;51.298;6.430;2024-03-08T13:52:49;20.52;;;12.48;;
35969;SDS011;22448;51.298;6.430;2024-03-08T13:55:23;20.25;;;12.15;;
35969;SDS011;22448;51.298;6.430;2024-03-08T13:57:54;20.70;;;12.98;;
35969;SDS011;22448;51.298;6.430;2024-03-08T14:00:23;17.85;;;11.70;;
35969;SDS011;22448;51.298;6.430;2024-03-08T14:02:54;18.67;;;11.98;;
35969;SDS011;22448;51.298;6.430;2024-03-08T14:05:21;19.05;;;12.85;;
35969;SDS011;22448;51.298;6.430;2024-03-08T14:07:48;18.77;;;11.43;;
35969;SDS011;22448;51.298;6.430;2024-03-08T14:10:16;20.25;;;12.57;;
35969;SDS011;22448;51.298;6.430;2024-03-08T14:12:47;35.15;;;13.50;;
35969;SDS011;22448;51.298;6.430;2024-03-08T14:15:15;25.80;;;13.07;;
35969;SDS011;22448;51.298;6.430;2024-03-08T14:17:42;19.38;;;11.88;;
35969;SDS011;22448;51.298;6.430;2024-03-08T14:20:13;24.83;;;13.05;;
35969;SDS011;22448;51.298;6.430;2024-03-08T14:22:40;24.05;;;11.70;;
35969;SDS011;22448;51.298;6.430;2024-03-08T14:25:07;21.23;;;11.90;;
35969;SDS011;22448;51.298;6.430;2024-03-08T14:27:44;19.60;;;12.18;;
35969;SDS011;22448;51.298;6.430;2024-03-08T14:30:12;18.48;;;11.38;;
35969;SDS011;22448;51.298;6.430;2024-03-08T14:32:40;19.77;;;12.25;;
35969;SDS011;22448;51.298;6.430;2024-03-08T14:35:08;20.60;;;11.43;;
35969;SDS011;22448;51.298;6.430;2024-03-08T14:37:37;18.33;;;11.15;;
35969;SDS011;22448;51.298;6.430;2024-03-08T14:40:05;22.83;;;12.02;;
35969;SDS011;22448;51.298;6.430;2024-03-08T14:42:32;18.50;;;11.65;;
35969;SDS011;22448;51.298;6.430;2024-03-08T14:44:59;20.15;;;11.65;;
35969;SDS011;22448;51.298;6.430;2024-03-08T14:47:26;16.02;;;10.13;;
35969;SDS011;22448;51.298;6.430;2024-03-08T14:49:54;19.08;;;10.93;;